sensor_id;sensor_type;location;lat;lon;timestamp;P1;durP1;ratioP1;P2;durP2;ratioP2
64225;SDS011;50545;56.064;26.178;2023-02-01T00:00:00;8.52;;;2.25;;
64225;SDS011;50545;56.064;26.178;2023-02-01T00:02:27;4.13;;;1.83;;
64225;SDS011;50545;56.064;26.178;2023-02-01T00:04:54;4.78;;;1.80;;
64225;SDS011;50545;56.064;26.178;2023-02-01T00:07:22;4.97;;;1.70;;
64225;SDS011;50545;56.064;26.178;2023-02-01T00:09:49;3.85;;;1.73;;
64225;SDS011;50545;56.064;26.178;2023-02-01T00:12:16;3.60;;;1.67;;
64225;SDS011;50545;56.064;26.178;2023-02-01T00:14:43;6.63;;;2.08;;
64225;SDS011;50545;56.064;26.178;2023-02-01T00:17:10;3.38;;;1.63;;
64225;SDS011;50545;56.064;26.178;2023-02-01T00:19:38;3.97;;;1.70;;
64225;SDS011;50545;56.064;26.178;2023-02-01T00:22:05;5.10;;;1.83;;
64225;SDS011;50545;56.064;26.178;2023-02-01T00:24:32;4.72;;;1.75;;
64225;SDS011;50545;56.064;26.178;2023-02-01T00:26:59;2.85;;;1.70;;
64225;SDS011;50545;56.064;26.178;2023-02-01T00:29:26;5.30;;;1.80;;
64225;SDS011;50545;56.064;26.178;2023-02-01T00:31:54;5.13;;;1.45;;
64225;SDS011;50545;56.064;26.178;2023-02-01T00:34:21;5.80;;;2.08;;
64225;SDS011;50545;56.064;26.178;2023-02-01T00:36:48;5.72;;;1.98;;
64225;SDS011;50545;56.064;26.178;2023-02-01T00:39:15;3.20;;;1.45;;
64225;SDS011;50545;56.064;26.178;2023-02-01T00:41:43;2.75;;;1.48;;
64225;SDS011;50545;56.064;26.178;2023-02-01T00:44:10;3.92;;;1.52;;
64225;SDS011;50545;56.064;26.178;2023-02-01T00:46:38;2.45;;;1.40;;
64225;SDS011;50545;56.064;26.178;2023-02-01T00:49:05;3.08;;;1.17;;
64225;SDS011;50545;56.064;26.178;2023-02-01T00:51:33;2.95;;;1.05;;
64225;SDS011;50545;56.064;26.178;2023-02-01T00:54:01;5.72;;;1.42;;
64225;SDS011;50545;56.064;26.178;2023-02-01T00:56:29;2.95;;;1.48;;
64225;SDS011;50545;56.064;26.178;2023-02-01T00:58:57;1.52;;;1.05;;
64225;SDS011;50545;56.064;26.178;2023-02-01T01:01:26;2.10;;;1.17;;
64225;SDS011;50545;56.064;26.178;2023-02-01T01:03:55;2.00;;;1.13;;
64225;SDS011;50545;56.064;26.178;2023-02-01T01:06:27;4.03;;;2.00;;
64225;SDS011;50545;56.064;26.178;2023-02-01T01:08:57;2.55;;;1.40;;
64225;SDS011;50545;56.064;26.178;2023-02-01T01:11:27;1.27;;;0.90;;
64225;SDS011;50545;56.064;26.178;2023-02-01T01:13:56;5.65;;;1.73;;
64225;SDS011;50545;56.064;26.178;2023-02-01T01:16:26;3.05;;;1.55;;
64225;SDS011;50545;56.064;26.178;2023-02-01T01:18:54;2.92;;;1.40;;
64225;SDS011;50545;56.064;26.178;2023-02-01T01:21:22;2.92;;;1.42;;
64225;SDS011;50545;56.064;26.178;2023-02-01T01:23:49;4.00;;;1.55;;
64225;SDS011;50545;56.064;26.178;2023-02-01T01:26:20;5.93;;;1.83;;
64225;SDS011;50545;56.064;26.178;2023-02-01T01:28:50;2.85;;;1.42;;
64225;SDS011;50545;56.064;26.178;2023-02-01T01:31:18;2.05;;;1.40;;
64225;SDS011;50545;56.064;26.178;2023-02-01T01:33:53;2.53;;;1.50;;
64225;SDS011;50545;56.064;26.178;2023-02-01T01:36:22;3.08;;;1.45;;
64225;SDS011;50545;56.064;26.178;2023-02-01T01:38:50;1.15;;;0.95;;
64225;SDS011;50545;56.064;26.178;2023-02-01T01:41:18;2.80;;;1.08;;
64225;SDS011;50545;56.064;26.178;2023-02-01T01:43:55;0.90;;;0.65;;
64225;SDS011;50545;56.064;26.178;2023-02-01T01:51:40;2.60;;;1.27;;
64225;SDS011;50545;56.064;26.178;2023-02-01T01:54:18;2.20;;;0.80;;
64225;SDS011;50545;56.064;26.178;2023-02-01T01:56:59;5.45;;;2.15;;
64225;SDS011;50545;56.064;26.178;2023-02-01T01:59:31;2.72;;;1.35;;
64225;SDS011;50545;56.064;26.178;2023-02-01T02:02:02;2.38;;;1.48;;
64225;SDS011;50545;56.064;26.178;2023-02-01T02:04:29;3.78;;;1.70;;
64225;SDS011;50545;56.064;26.178;2023-02-01T02:07:11;3.67;;;1.40;;
64225;SDS011;50545;56.064;26.178;2023-02-01T02:09:43;2.33;;;1.33;;
64225;SDS011;50545;56.064;26.178;2023-02-01T02:12:26;3.50;;;1.60;;
64225;SDS011;50545;56.064;26.178;2023-02-01T02:14:54;1.05;;;0.88;;
64225;SDS011;50545;56.064;26.178;2023-02-01T02:17:33;2.67;;;1.63;;
64225;SDS011;50545;56.064;26.178;2023-02-01T02:25:53;3.20;;;1.38;;
64225;SDS011;50545;56.064;26.178;2023-02-01T02:31:40;6.72;;;2.25;;
64225;SDS011;50545;56.064;26.178;2023-02-01T02:34:31;4.03;;;1.30;;
64225;SDS011;50545;56.064;26.178;2023-02-01T02:46:18;0.17;;;0.17;;
64225;SDS011;50545;56.064;26.178;2023-02-01T02:49:52;1.20;;;0.93;;
64225;SDS011;50545;56.064;26.178;2023-02-01T02:52:02;3.58;;;1.20;;
64225;SDS011;50545;56.064;26.178;2023-02-01T02:54:50;3.63;;;1.70;;
64225;SDS011;50545;56.064;26.178;2023-02-01T03:00:20;3.20;;;1.63;;
64225;SDS011;50545;56.064;26.178;2023-02-01T03:03:10;1.08;;;0.95;;
64225;SDS011;50545;56.064;26.178;2023-02-01T03:05:55;2.95;;;1.38;;
64225;SDS011;50545;56.064;26.178;2023-02-01T03:11:02;1.25;;;0.80;;
64225;SDS011;50545;56.064;26.178;2023-02-01T03:16:36;1.83;;;1.13;;
64225;SDS011;50545;56.064;26.178;2023-02-01T03:19:32;2.22;;;1.27;;
64225;SDS011;50545;56.064;26.178;2023-02-01T03:22:05;2.85;;;1.20;;
64225;SDS011;50545;56.064;26.178;2023-02-01T03:24:40;0.63;;;0.55;;
64225;SDS011;50545;56.064;26.178;2023-02-01T03:27:13;3.58;;;1.50;;
64225;SDS011;50545;56.064;26.178;2023-02-01T03:29:48;1.77;;;1.45;;
64225;SDS011;50545;56.064;26.178;2023-02-01T03:32:28;5.40;;;1.67;;
64225;SDS011;50545;56.064;26.178;2023-02-01T03:35:16;3.13;;;1.67;;
64225;SDS011;50545;56.064;26.178;2023-02-01T03:37:44;3.85;;;1.40;;
64225;SDS011;50545;56.064;26.178;2023-02-01T03:40:12;1.83;;;1.33;;
64225;SDS011;50545;56.064;26.178;2023-02-01T03:42:43;2.35;;;1.27;;
64225;SDS011;50545;56.064;26.178;2023-02-01T03:45:20;3.83;;;1.70;;
64225;SDS011;50545;56.064;26.178;2023-02-01T03:47:53;1.73;;;1.40;;
64225;SDS011;50545;56.064;26.178;2023-02-01T03:50:23;3.83;;;1.33;;
64225;SDS011;50545;56.064;26.178;2023-02-01T03:53:02;5.80;;;2.03;;
64225;SDS011;50545;56.064;26.178;2023-02-01T03:55:35;3.50;;;0.77;;
64225;SDS011;50545;56.064;26.178;2023-02-01T03:58:11;1.77;;;1.25;;
64225;SDS011;50545;56.064;26.178;2023-02-01T04:00:40;3.63;;;1.25;;
64225;SDS011;50545;56.064;26.178;2023-02-01T04:03:10;5.43;;;2.22;;
64225;SDS011;50545;56.064;26.178;2023-02-01T04:05:37;2.85;;;0.95;;
64225;SDS011;50545;56.064;26.178;2023-02-01T04:08:04;1.23;;;1.00;;
64225;SDS011;50545;56.064;26.178;2023-02-01T04:10:32;1.83;;;1.00;;
64225;SDS011;50545;56.064;26.178;2023-02-01T04:12:59;3.33;;;1.35;;
64225;SDS011;50545;56.064;26.178;2023-02-01T04:15:26;3.40;;;1.48;;
64225;SDS011;50545;56.064;26.178;2023-02-01T04:17:53;0.60;;;0.55;;
64225;SDS011;50545;56.064;26.178;2023-02-01T04:20:21;0.95;;;0.90;;
64225;SDS011;50545;56.064;26.178;2023-02-01T04:22:48;0.30;;;0.30;;
64225;SDS011;50545;56.064;26.178;2023-02-01T04:25:16;2.42;;;1.10;;
64225;SDS011;50545;56.064;26.178;2023-02-01T04:27:43;0.95;;;0.82;;
64225;SDS011;50545;56.064;26.178;2023-02-01T04:30:11;4.07;;;2.13;;
64225;SDS011;50545;56.064;26.178;2023-02-01T04:32:39;1.23;;;0.98;;
64225;SDS011;50545;56.064;26.178;2023-02-01T04:35:06;2.53;;;1.20;;
64225;SDS011;50545;56.064;26.178;2023-02-01T04:37:34;0.38;;;0.38;;
64225;SDS011;50545;56.064;26.178;2023-02-01T04:40:01;1.85;;;1.25;;
64225;SDS011;50545;56.064;26.178;2023-02-01T04:42:30;1.73;;;1.23;;
64225;SDS011;50545;56.064;26.178;2023-02-01T04:44:57;2.58;;;1.27;;
64225;SDS011;50545;56.064;26.178;2023-02-01T04:47:24;2.00;;;1.08;;
64225;SDS011;50545;56.064;26.178;2023-02-01T04:49:52;2.15;;;0.95;;
64225;SDS011;50545;56.064;26.178;2023-02-01T04:52:19;0.55;;;0.55;;
64225;SDS011;50545;56.064;26.178;2023-02-01T04:54:47;0.98;;;0.73;;
64225;SDS011;50545;56.064;26.178;2023-02-01T04:57:14;1.73;;;1.45;;
64225;SDS011;50545;56.064;26.178;2023-02-01T04:59:41;0.95;;;0.90;;
64225;SDS011;50545;56.064;26.178;2023-02-01T05:02:09;3.13;;;1.58;;
64225;SDS011;50545;56.064;26.178;2023-02-01T05:04:36;1.33;;;0.80;;
64225;SDS011;50545;56.064;26.178;2023-02-01T05:07:03;1.15;;;0.88;;
64225;SDS011;50545;56.064;26.178;2023-02-01T05:09:30;0.75;;;0.75;;
64225;SDS011;50545;56.064;26.178;2023-02-01T05:11:57;2.65;;;1.55;;
64225;SDS011;50545;56.064;26.178;2023-02-01T05:14:43;2.35;;;1.50;;
64225;SDS011;50545;56.064;26.178;2023-02-01T05:17:10;2.13;;;1.35;;
64225;SDS011;50545;56.064;26.178;2023-02-01T05:19:37;5.15;;;2.10;;
64225;SDS011;50545;56.064;26.178;2023-02-01T05:22:05;3.22;;;1.80;;
64225;SDS011;50545;56.064;26.178;2023-02-01T05:24:32;1.88;;;1.10;;
64225;SDS011;50545;56.064;26.178;2023-02-01T05:26:59;2.65;;;0.80;;
64225;SDS011;50545;56.064;26.178;2023-02-01T05:29:27;3.58;;;1.45;;
64225;SDS011;50545;56.064;26.178;2023-02-01T05:31:54;2.00;;;1.23;;
64225;SDS011;50545;56.064;26.178;2023-02-01T05:34:22;3.15;;;1.00;;
64225;SDS011;50545;56.064;26.178;2023-02-01T05:36:49;2.55;;;1.10;;
64225;SDS011;50545;56.064;26.178;2023-02-01T05:39:17;2.17;;;1.70;;
64225;SDS011;50545;56.064;26.178;2023-02-01T05:41:44;2.90;;;1.77;;
64225;SDS011;50545;56.064;26.178;2023-02-01T05:44:11;0.93;;;0.55;;
64225;SDS011;50545;56.064;26.178;2023-02-01T05:46:38;3.35;;;1.30;;
64225;SDS011;50545;56.064;26.178;2023-02-01T05:49:05;1.45;;;0.77;;
64225;SDS011;50545;56.064;26.178;2023-02-01T05:51:33;1.40;;;0.98;;
64225;SDS011;50545;56.064;26.178;2023-02-01T05:54:00;2.33;;;1.42;;
64225;SDS011;50545;56.064;26.178;2023-02-01T05:56:27;2.20;;;1.35;;
64225;SDS011;50545;56.064;26.178;2023-02-01T05:58:54;2.85;;;1.73;;
64225;SDS011;50545;56.064;26.178;2023-02-01T06:01:22;1.15;;;1.05;;
64225;SDS011;50545;56.064;26.178;2023-02-01T06:03:49;2.05;;;1.13;;
64225;SDS011;50545;56.064;26.178;2023-02-01T06:06:16;1.48;;;1.08;;
64225;SDS011;50545;56.064;26.178;2023-02-01T06:08:46;4.95;;;1.67;;
64225;SDS011;50545;56.064;26.178;2023-02-01T06:11:13;1.20;;;0.98;;
64225;SDS011;50545;56.064;26.178;2023-02-01T06:13:57;1.33;;;0.80;;
64225;SDS011;50545;56.064;26.178;2023-02-01T06:16:25;2.97;;;1.30;;
64225;SDS011;50545;56.064;26.178;2023-02-01T06:18:54;2.10;;;1.40;;
64225;SDS011;50545;56.064;26.178;2023-02-01T06:21:21;2.67;;;1.30;;
64225;SDS011;50545;56.064;26.178;2023-02-01T06:23:52;2.70;;;1.50;;
64225;SDS011;50545;56.064;26.178;2023-02-01T06:26:20;1.27;;;0.88;;
64225;SDS011;50545;56.064;26.178;2023-02-01T06:28:48;2.85;;;1.35;;
64225;SDS011;50545;56.064;26.178;2023-02-01T06:31:16;0.10;;;0.10;;
64225;SDS011;50545;56.064;26.178;2023-02-01T06:33:43;2.47;;;1.40;;
64225;SDS011;50545;56.064;26.178;2023-02-01T06:36:13;2.53;;;1.27;;
64225;SDS011;50545;56.064;26.178;2023-02-01T06:59:34;5.53;;;2.63;;
64225;SDS011;50545;56.064;26.178;2023-02-01T07:02:01;4.38;;;2.47;;
64225;SDS011;50545;56.064;26.178;2023-02-01T07:04:28;2.83;;;1.88;;
64225;SDS011;50545;56.064;26.178;2023-02-01T07:06:56;5.03;;;2.22;;
64225;SDS011;50545;56.064;26.178;2023-02-01T07:09:24;4.57;;;2.35;;
64225;SDS011;50545;56.064;26.178;2023-02-01T07:11:51;2.33;;;1.35;;
64225;SDS011;50545;56.064;26.178;2023-02-01T07:14:18;1.95;;;1.17;;
64225;SDS011;50545;56.064;26.178;2023-02-01T07:16:45;3.13;;;1.60;;
64225;SDS011;50545;56.064;26.178;2023-02-01T07:19:12;3.80;;;1.77;;
64225;SDS011;50545;56.064;26.178;2023-02-01T07:21:39;10.23;;;4.13;;
64225;SDS011;50545;56.064;26.178;2023-02-01T07:24:07;3.90;;;2.03;;
64225;SDS011;50545;56.064;26.178;2023-02-01T07:26:34;5.32;;;3.03;;
64225;SDS011;50545;56.064;26.178;2023-02-01T07:29:01;5.40;;;3.25;;
64225;SDS011;50545;56.064;26.178;2023-02-01T07:31:28;3.47;;;2.20;;
64225;SDS011;50545;56.064;26.178;2023-02-01T07:33:55;3.30;;;2.00;;
64225;SDS011;50545;56.064;26.178;2023-02-01T07:36:24;4.90;;;2.90;;
64225;SDS011;50545;56.064;26.178;2023-02-01T07:38:51;5.50;;;2.30;;
64225;SDS011;50545;56.064;26.178;2023-02-01T07:41:21;4.32;;;1.15;;
64225;SDS011;50545;56.064;26.178;2023-02-01T07:43:49;3.58;;;2.22;;
64225;SDS011;50545;56.064;26.178;2023-02-01T07:46:19;6.78;;;3.20;;
64225;SDS011;50545;56.064;26.178;2023-02-01T07:48:47;6.72;;;2.55;;
64225;SDS011;50545;56.064;26.178;2023-02-01T07:51:15;4.38;;;2.17;;
64225;SDS011;50545;56.064;26.178;2023-02-01T07:53:43;3.20;;;2.05;;
64225;SDS011;50545;56.064;26.178;2023-02-01T07:56:18;3.88;;;2.20;;
64225;SDS011;50545;56.064;26.178;2023-02-01T07:58:49;5.18;;;2.70;;
64225;SDS011;50545;56.064;26.178;2023-02-01T08:01:20;3.15;;;1.88;;
64225;SDS011;50545;56.064;26.178;2023-02-01T08:03:52;4.03;;;2.15;;
64225;SDS011;50545;56.064;26.178;2023-02-01T08:06:20;4.57;;;2.20;;
64225;SDS011;50545;56.064;26.178;2023-02-01T08:08:49;6.90;;;2.97;;
64225;SDS011;50545;56.064;26.178;2023-02-01T08:11:16;5.45;;;2.70;;
64225;SDS011;50545;56.064;26.178;2023-02-01T08:13:45;5.90;;;2.50;;
64225;SDS011;50545;56.064;26.178;2023-02-01T08:16:13;3.97;;;2.33;;
64225;SDS011;50545;56.064;26.178;2023-02-01T08:18:41;3.13;;;2.22;;
64225;SDS011;50545;56.064;26.178;2023-02-01T08:23:44;6.32;;;2.03;;
64225;SDS011;50545;56.064;26.178;2023-02-01T08:28:59;5.13;;;2.13;;
64225;SDS011;50545;56.064;26.178;2023-02-01T08:31:29;4.55;;;2.25;;
64225;SDS011;50545;56.064;26.178;2023-02-01T08:33:57;4.05;;;2.30;;
64225;SDS011;50545;56.064;26.178;2023-02-01T08:36:27;4.20;;;2.23;;
64225;SDS011;50545;56.064;26.178;2023-02-01T08:38:56;5.13;;;2.25;;
64225;SDS011;50545;56.064;26.178;2023-02-01T08:41:25;4.22;;;2.05;;
64225;SDS011;50545;56.064;26.178;2023-02-01T08:43:55;3.47;;;2.08;;
64225;SDS011;50545;56.064;26.178;2023-02-01T08:46:23;4.03;;;2.17;;
64225;SDS011;50545;56.064;26.178;2023-02-01T08:48:50;5.97;;;2.30;;
64225;SDS011;50545;56.064;26.178;2023-02-01T08:51:19;2.85;;;1.48;;
64225;SDS011;50545;56.064;26.178;2023-02-01T08:53:47;4.00;;;2.40;;
64225;SDS011;50545;56.064;26.178;2023-02-01T08:56:16;4.03;;;2.00;;
64225;SDS011;50545;56.064;26.178;2023-02-01T08:58:44;3.95;;;2.15;;
64225;SDS011;50545;56.064;26.178;2023-02-01T09:01:15;4.57;;;1.92;;
64225;SDS011;50545;56.064;26.178;2023-02-01T09:03:43;4.45;;;2.20;;
64225;SDS011;50545;56.064;26.178;2023-02-01T09:06:12;3.63;;;2.33;;
64225;SDS011;50545;56.064;26.178;2023-02-01T09:08:40;3.25;;;2.08;;
64225;SDS011;50545;56.064;26.178;2023-02-01T09:11:10;4.45;;;2.28;;
64225;SDS011;50545;56.064;26.178;2023-02-01T09:13:39;3.20;;;2.22;;
64225;SDS011;50545;56.064;26.178;2023-02-01T09:16:07;5.65;;;2.38;;
64225;SDS011;50545;56.064;26.178;2023-02-01T09:18:34;3.63;;;2.28;;
64225;SDS011;50545;56.064;26.178;2023-02-01T09:21:05;4.43;;;2.30;;
64225;SDS011;50545;56.064;26.178;2023-02-01T09:23:33;4.43;;;1.92;;
64225;SDS011;50545;56.064;26.178;2023-02-01T09:26:01;1.92;;;1.65;;
64225;SDS011;50545;56.064;26.178;2023-02-01T09:28:30;4.32;;;2.05;;
64225;SDS011;50545;56.064;26.178;2023-02-01T09:30:58;3.30;;;2.05;;
64225;SDS011;50545;56.064;26.178;2023-02-01T09:33:26;4.30;;;2.13;;
64225;SDS011;50545;56.064;26.178;2023-02-01T09:35:55;2.53;;;1.60;;
64225;SDS011;50545;56.064;26.178;2023-02-01T09:38:23;2.38;;;1.65;;
64225;SDS011;50545;56.064;26.178;2023-02-01T09:40:52;4.00;;;1.88;;
64225;SDS011;50545;56.064;26.178;2023-02-01T09:43:21;5.15;;;2.08;;
64225;SDS011;50545;56.064;26.178;2023-02-01T09:48:53;3.40;;;2.00;;
64225;SDS011;50545;56.064;26.178;2023-02-01T09:51:24;3.15;;;1.95;;
64225;SDS011;50545;56.064;26.178;2023-02-01T09:53:59;3.47;;;1.88;;
64225;SDS011;50545;56.064;26.178;2023-02-01T09:56:38;3.80;;;1.85;;
64225;SDS011;50545;56.064;26.178;2023-02-01T09:59:30;4.10;;;2.10;;
64225;SDS011;50545;56.064;26.178;2023-02-01T10:02:17;3.42;;;1.90;;
64225;SDS011;50545;56.064;26.178;2023-02-01T10:04:54;4.07;;;2.38;;
64225;SDS011;50545;56.064;26.178;2023-02-01T10:10:38;2.63;;;1.90;;
64225;SDS011;50545;56.064;26.178;2023-02-01T10:13:18;2.90;;;1.90;;
64225;SDS011;50545;56.064;26.178;2023-02-01T10:18:33;2.35;;;1.77;;
64225;SDS011;50545;56.064;26.178;2023-02-01T10:21:10;2.35;;;1.65;;
64225;SDS011;50545;56.064;26.178;2023-02-01T10:24:09;1.90;;;1.50;;
64225;SDS011;50545;56.064;26.178;2023-02-01T10:30:21;2.47;;;1.52;;
64225;SDS011;50545;56.064;26.178;2023-02-01T10:32:57;2.80;;;1.75;;
64225;SDS011;50545;56.064;26.178;2023-02-01T10:35:39;2.40;;;1.70;;
64225;SDS011;50545;56.064;26.178;2023-02-01T10:38:12;4.25;;;1.88;;
64225;SDS011;50545;56.064;26.178;2023-02-01T10:40:55;3.30;;;1.77;;
64225;SDS011;50545;56.064;26.178;2023-02-01T10:43:42;2.92;;;1.98;;
64225;SDS011;50545;56.064;26.178;2023-02-01T10:46:11;4.40;;;2.83;;
64225;SDS011;50545;56.064;26.178;2023-02-01T10:48:38;5.13;;;2.30;;
64225;SDS011;50545;56.064;26.178;2023-02-01T10:51:24;3.45;;;2.25;;
64225;SDS011;50545;56.064;26.178;2023-02-01T10:54:01;4.13;;;2.33;;
64225;SDS011;50545;56.064;26.178;2023-02-01T10:56:36;2.50;;;1.83;;
64225;SDS011;50545;56.064;26.178;2023-02-01T10:59:05;4.63;;;2.50;;
64225;SDS011;50545;56.064;26.178;2023-02-01T11:01:41;3.45;;;1.95;;
64225;SDS011;50545;56.064;26.178;2023-02-01T11:04:15;3.40;;;2.08;;
64225;SDS011;50545;56.064;26.178;2023-02-01T11:06:46;3.95;;;2.15;;
64225;SDS011;50545;56.064;26.178;2023-02-01T11:09:21;2.72;;;1.95;;
64225;SDS011;50545;56.064;26.178;2023-02-01T11:16:56;2.47;;;1.35;;
64225;SDS011;50545;56.064;26.178;2023-02-01T11:19:26;3.03;;;1.90;;
64225;SDS011;50545;56.064;26.178;2023-02-01T11:21:56;2.40;;;1.88;;
64225;SDS011;50545;56.064;26.178;2023-02-01T11:27:00;2.92;;;1.60;;
64225;SDS011;50545;56.064;26.178;2023-02-01T11:29:35;3.03;;;1.83;;
64225;SDS011;50545;56.064;26.178;2023-02-01T11:32:05;4.13;;;2.05;;
64225;SDS011;50545;56.064;26.178;2023-02-01T11:34:39;2.65;;;2.00;;
64225;SDS011;50545;56.064;26.178;2023-02-01T11:37:21;3.03;;;2.00;;
64225;SDS011;50545;56.064;26.178;2023-02-01T11:40:01;2.83;;;1.77;;
64225;SDS011;50545;56.064;26.178;2023-02-01T11:42:56;3.65;;;2.08;;
64225;SDS011;50545;56.064;26.178;2023-02-01T11:45:29;2.35;;;1.83;;
64225;SDS011;50545;56.064;26.178;2023-02-01T11:47:58;3.13;;;2.10;;
64225;SDS011;50545;56.064;26.178;2023-02-01T11:53:06;3.78;;;2.03;;
64225;SDS011;50545;56.064;26.178;2023-02-01T11:58:44;2.35;;;1.83;;
64225;SDS011;50545;56.064;26.178;2023-02-01T12:06:56;5.00;;;2.40;;
64225;SDS011;50545;56.064;26.178;2023-02-01T12:12:58;5.20;;;2.13;;
64225;SDS011;50545;56.064;26.178;2023-02-01T12:15:52;2.15;;;1.52;;
64225;SDS011;50545;56.064;26.178;2023-02-01T12:21:13;2.30;;;1.70;;
64225;SDS011;50545;56.064;26.178;2023-02-01T12:36:12;1.45;;;1.10;;
64225;SDS011;50545;56.064;26.178;2023-02-01T12:44:34;2.20;;;1.67;;
64225;SDS011;50545;56.064;26.178;2023-02-01T12:55:05;1.73;;;1.63;;
64225;SDS011;50545;56.064;26.178;2023-02-01T12:57:53;3.22;;;1.60;;
64225;SDS011;50545;56.064;26.178;2023-02-01T13:00:44;1.20;;;1.15;;
64225;SDS011;50545;56.064;26.178;2023-02-01T13:06:08;2.00;;;1.33;;
64225;SDS011;50545;56.064;26.178;2023-02-01T13:12:11;2.53;;;1.23;;
64225;SDS011;50545;56.064;26.178;2023-02-01T13:14:46;2.25;;;1.38;;
64225;SDS011;50545;56.064;26.178;2023-02-01T13:20:09;2.13;;;1.60;;
64225;SDS011;50545;56.064;26.178;2023-02-01T13:22:55;2.03;;;1.58;;
64225;SDS011;50545;56.064;26.178;2023-02-01T13:25:52;2.00;;;1.15;;
64225;SDS011;50545;56.064;26.178;2023-02-01T13:28:25;1.98;;;1.40;;
64225;SDS011;50545;56.064;26.178;2023-02-01T13:39:48;2.03;;;1.38;;
64225;SDS011;50545;56.064;26.178;2023-02-01T13:42:22;1.90;;;1.20;;
64225;SDS011;50545;56.064;26.178;2023-02-01T13:44:56;2.25;;;1.42;;
64225;SDS011;50545;56.064;26.178;2023-02-01T13:47:31;1.30;;;1.20;;
64225;SDS011;50545;56.064;26.178;2023-02-01T13:50:12;1.73;;;1.17;;
64225;SDS011;50545;56.064;26.178;2023-02-01T13:52:55;1.30;;;1.15;;
64225;SDS011;50545;56.064;26.178;2023-02-01T13:57:59;1.77;;;1.40;;
64225;SDS011;50545;56.064;26.178;2023-02-01T14:00:35;1.15;;;1.05;;
64225;SDS011;50545;56.064;26.178;2023-02-01T14:03:08;2.30;;;1.48;;
64225;SDS011;50545;56.064;26.178;2023-02-01T14:11:06;4.25;;;2.40;;
64225;SDS011;50545;56.064;26.178;2023-02-01T14:13:30;4.93;;;2.20;;
64225;SDS011;50545;56.064;26.178;2023-02-01T14:26:26;3.58;;;2.00;;
64225;SDS011;50545;56.064;26.178;2023-02-01T14:37:04;3.33;;;1.70;;
64225;SDS011;50545;56.064;26.178;2023-02-01T14:47:54;2.15;;;1.65;;
64225;SDS011;50545;56.064;26.178;2023-02-01T15:00:57;4.35;;;2.40;;
64225;SDS011;50545;56.064;26.178;2023-02-01T15:03:34;4.87;;;2.40;;
64225;SDS011;50545;56.064;26.178;2023-02-01T15:12:05;3.38;;;2.20;;
64225;SDS011;50545;56.064;26.178;2023-02-01T15:15:33;5.22;;;2.83;;
64225;SDS011;50545;56.064;26.178;2023-02-01T15:17:56;3.85;;;2.28;;
64225;SDS011;50545;56.064;26.178;2023-02-01T15:20:27;7.03;;;2.53;;
64225;SDS011;50545;56.064;26.178;2023-02-01T15:25:27;5.93;;;2.65;;
64225;SDS011;50545;56.064;26.178;2023-02-01T15:28:05;4.22;;;2.38;;
64225;SDS011;50545;56.064;26.178;2023-02-01T15:30:39;4.03;;;2.50;;
64225;SDS011;50545;56.064;26.178;2023-02-01T15:33:18;4.78;;;2.63;;
64225;SDS011;50545;56.064;26.178;2023-02-01T15:35:47;5.75;;;3.00;;
64225;SDS011;50545;56.064;26.178;2023-02-01T15:38:31;5.73;;;3.03;;
64225;SDS011;50545;56.064;26.178;2023-02-01T15:46:08;3.88;;;2.30;;
64225;SDS011;50545;56.064;26.178;2023-02-01T15:48:46;3.80;;;2.58;;
64225;SDS011;50545;56.064;26.178;2023-02-01T15:51:17;4.25;;;1.88;;
64225;SDS011;50545;56.064;26.178;2023-02-01T15:54:07;2.97;;;2.10;;
64225;SDS011;50545;56.064;26.178;2023-02-01T15:56:40;3.38;;;1.88;;
64225;SDS011;50545;56.064;26.178;2023-02-01T15:59:21;2.72;;;1.90;;
64225;SDS011;50545;56.064;26.178;2023-02-01T16:01:51;2.63;;;1.77;;
64225;SDS011;50545;56.064;26.178;2023-02-01T16:04:20;2.90;;;2.05;;
64225;SDS011;50545;56.064;26.178;2023-02-01T16:09:17;2.35;;;1.77;;
64225;SDS011;50545;56.064;26.178;2023-02-01T16:11:55;2.65;;;1.95;;
64225;SDS011;50545;56.064;26.178;2023-02-01T16:14:24;3.83;;;2.00;;
64225;SDS011;50545;56.064;26.178;2023-02-01T16:16:53;3.45;;;1.85;;
64225;SDS011;50545;56.064;26.178;2023-02-01T16:19:22;3.28;;;2.05;;
64225;SDS011;50545;56.064;26.178;2023-02-01T16:21:54;3.75;;;2.10;;
64225;SDS011;50545;56.064;26.178;2023-02-01T16:24:22;3.25;;;2.03;;
64225;SDS011;50545;56.064;26.178;2023-02-01T16:26:52;4.63;;;2.60;;
64225;SDS011;50545;56.064;26.178;2023-02-01T16:29:19;3.25;;;1.83;;
64225;SDS011;50545;56.064;26.178;2023-02-01T16:31:48;5.90;;;2.20;;
64225;SDS011;50545;56.064;26.178;2023-02-01T16:34:16;3.78;;;2.00;;
64225;SDS011;50545;56.064;26.178;2023-02-01T16:36:47;2.90;;;2.20;;
64225;SDS011;50545;56.064;26.178;2023-02-01T16:39:20;4.68;;;2.53;;
64225;SDS011;50545;56.064;26.178;2023-02-01T16:41:47;4.53;;;2.42;;
64225;SDS011;50545;56.064;26.178;2023-02-01T16:44:14;2.85;;;2.08;;
64225;SDS011;50545;56.064;26.178;2023-02-01T16:46:42;4.55;;;2.58;;
64225;SDS011;50545;56.064;26.178;2023-02-01T16:51:47;4.25;;;2.60;;
64225;SDS011;50545;56.064;26.178;2023-02-01T16:54:16;3.13;;;2.00;;
64225;SDS011;50545;56.064;26.178;2023-02-01T16:56:44;4.22;;;2.28;;
64225;SDS011;50545;56.064;26.178;2023-02-01T16:59:12;3.95;;;2.22;;
64225;SDS011;50545;56.064;26.178;2023-02-01T17:01:41;4.78;;;2.42;;
64225;SDS011;50545;56.064;26.178;2023-02-01T17:04:09;3.40;;;2.20;;
64225;SDS011;50545;56.064;26.178;2023-02-01T17:06:38;3.33;;;2.20;;
64225;SDS011;50545;56.064;26.178;2023-02-01T17:09:06;4.50;;;2.60;;
64225;SDS011;50545;56.064;26.178;2023-02-01T17:11:33;3.47;;;2.40;;
64225;SDS011;50545;56.064;26.178;2023-02-01T17:14:08;4.43;;;2.45;;
64225;SDS011;50545;56.064;26.178;2023-02-01T17:16:45;3.83;;;2.20;;
64225;SDS011;50545;56.064;26.178;2023-02-01T17:19:15;4.10;;;2.27;;
64225;SDS011;50545;56.064;26.178;2023-02-01T17:24:15;4.33;;;2.43;;
64225;SDS011;50545;56.064;26.178;2023-02-01T17:26:44;3.58;;;2.38;;
64225;SDS011;50545;56.064;26.178;2023-02-01T17:29:12;3.97;;;2.42;;
64225;SDS011;50545;56.064;26.178;2023-02-01T17:31:40;4.13;;;2.40;;
64225;SDS011;50545;56.064;26.178;2023-02-01T17:34:11;3.25;;;2.33;;
64225;SDS011;50545;56.064;26.178;2023-02-01T17:39:09;4.22;;;2.53;;
64225;SDS011;50545;56.064;26.178;2023-02-01T17:41:36;5.60;;;2.72;;
64225;SDS011;50545;56.064;26.178;2023-02-01T17:44:04;4.93;;;2.80;;
64225;SDS011;50545;56.064;26.178;2023-02-01T17:46:31;5.15;;;2.70;;
64225;SDS011;50545;56.064;26.178;2023-02-01T17:48:58;5.72;;;2.72;;
64225;SDS011;50545;56.064;26.178;2023-02-01T17:51:27;5.38;;;2.85;;
64225;SDS011;50545;56.064;26.178;2023-02-01T17:53:56;3.63;;;2.50;;
64225;SDS011;50545;56.064;26.178;2023-02-01T17:56:23;5.85;;;2.85;;
64225;SDS011;50545;56.064;26.178;2023-02-01T17:58:51;5.05;;;2.83;;
64225;SDS011;50545;56.064;26.178;2023-02-01T18:01:20;5.70;;;2.78;;
64225;SDS011;50545;56.064;26.178;2023-02-01T18:03:49;4.05;;;2.50;;
64225;SDS011;50545;56.064;26.178;2023-02-01T18:06:18;4.68;;;2.67;;
64225;SDS011;50545;56.064;26.178;2023-02-01T18:08:52;4.40;;;2.63;;
64225;SDS011;50545;56.064;26.178;2023-02-01T18:11:20;5.40;;;3.13;;
64225;SDS011;50545;56.064;26.178;2023-02-01T18:13:50;5.70;;;3.30;;
64225;SDS011;50545;56.064;26.178;2023-02-01T18:18:54;6.32;;;3.30;;
64225;SDS011;50545;56.064;26.178;2023-02-01T18:21:34;6.55;;;3.80;;
64225;SDS011;50545;56.064;26.178;2023-02-01T18:24:12;6.53;;;3.40;;
64225;SDS011;50545;56.064;26.178;2023-02-01T18:26:41;6.07;;;3.55;;
64225;SDS011;50545;56.064;26.178;2023-02-01T18:29:09;5.93;;;3.55;;